Abraham, West Virginia
Current Conditions -  °F | °C
As of 1:51 PM on Saturday 25 Oct 2014 (Local Time) from KBKW Reporting Station
Few Clouds Few Clouds  
Wind Chill: 60°   Ceiling: Unl
Heat Index: 60°   Visibility: 10mi
Dew Point: 41°   Wind: 8mph
Humidity: 49%   Direction: 240°WSW
Pressure: 30.01"   Gusts: 17mph
Location:  37.6906°N, 81.1704°W
Report Text: KBKW 251751Z AUTO 24007G15KT 10SM FEW070 16/05 A3001 RMK AO2 SLP161 T01560050 10161 20039 58016 TSNO
Loading
Personal Weather Stations






























Interactive Weather Map
Tropical Storm Tracking
New forecast layout! Learn more

10-Day Weather Forecast

Advertisements
Track Severe Weather on mobile